메인 페이지
METAR-TAF:

METAR-TAF

공항 :

Brownsville, 텍사스, 미국

위도: 25-54-51N, 경도: 097-25-23W, 고도: 7m

현재 날씨관측

예보는 59분 전, 09:53시(UTC)에 발표되었습니다.
남동7kt
온도 28°C
습도 89%
기압 1012 hPa
시정: 16.1km
맑음

METAR: KBRO 300953Z AUTO 14007KT 10SM CLR 28/26 A2989 RMK AO2 SLP121 T02780261 $

시각: 05:52 (10:52 UTC)

예보

예보는 5 시간 16분 전, 05:36시(UTC)에 발표되었습니다.
예보 대상 시간: 30일 06시부터 31일 06시까지 (UTC)
남동9kt
시정: 10km
고도 1500ft 상공 구름 보통
일시적
30일 07시부터 30일 10시까지 (UTC)
고도 1500ft 상공 구름 많음
30일 1000시부터 (UTC)
남남동11kt
시정: 10km
고도 2200ft 상공 구름 많음
30일 1500시부터 (UTC)
남남동16kt, 순간 최대 풍속 24kt
시정: 10km
고도 4000ft 상공 구름 보통
고도 25000ft 상공 구름 보통
31일 0400시부터 (UTC)
남동15kt
시정: 10km
고도 1700ft 상공 구름 많음

TAF: KBRO 300536Z 3006/3106 13009KT P6SM SCT015 TEMPO 3007/3010 BKN015 FM301000 15011KT P6SM BKN022 FM301500 15016G24KT P6SM SCT040 SCT250 FM310400 13015KT P6SM BKN017

4,000개 이상의 공항 관측 자료 및 예보 (METAR 및 TAF 보고).

지도상에서 검색 가능한 기상관측소가 노란 점과 빨간 점으로 표시되어 있습니다.

기상관측소 명을 보려면 표시 위로 마우스를 이동하세요.

날씨 관측과 예보를 보려면 클릭하세요.

지도 변경 : 확대하려면 엑스 표시가 있는 녹색 버튼, 축소하려면 빼기 표시가 있는 녹색 버튼, 다음 페이지의 지도를 보려면 녹색 화살표를 클릭하세요.


METAR-TAF: